Terminal Aerodrome Forecast
Issued by NWS

Home | Current Version | Previous Version | Text Only | Print | Product List | Glossary On
Versions: 1 2 3 4 5 6 7 8 9 10 11 12 13 14 15 16
000
FTUS45 KTFX 182300
TAFHLN
TAF
KHLN 182328Z 1900/1924 29017G28KT P6SM SCT050 BKN080
     FM190400 26010KT P6SM SCT070
     FM191900 27010G20KT P6SM SCT040 BKN070=

USA.gov is the U.S. government's official web portal to all federal, state and local government web resources and services.